Time;durP1;ratioP1;P1;durP2;ratioP2;P2;SDS_P1;SDS_P2;PMS_P1;PMS_P2;Temp;Humidity;BMP_temperature;BMP_pressure;BME280_temperature;BME280_humidity;BME280_pressure;Samples;Min_cycle;Max_cycle;Signal;HPM_P1;HPM_P2
2022/03/17 00:01:19;;;;;;;15.40;9.20;;;18.70;48.30;;;;;;4811590;29;20189;-85
2022/03/17 00:03:48;;;;;;;13.65;9.07;;;18.70;48.40;;;;;;4811739;29;20649;-88
2022/03/17 00:06:14;;;;;;;13.55;9.45;;;18.70;48.50;;;;;;4811511;29;20189;-88
2022/03/17 00:08:42;;;;;;;11.85;8.95;;;18.70;48.30;;;;;;4842265;29;20652;-90
2022/03/17 00:11:10;;;;;;;14.57;9.65;;;18.60;48.40;;;;;;4811667;29;20589;-85
2022/03/17 00:13:41;;;;;;;17.65;8.85;;;18.60;48.70;;;;;;4826749;29;20189;-87
2022/03/17 00:16:13;;;;;;;12.57;9.07;;;18.70;48.40;;;;;;4827456;29;20646;-90
2022/03/17 00:18:41;;;;;;;13.35;9.02;;;18.60;48.70;;;;;;4812524;29;20185;-86
2022/03/17 00:21:11;;;;;;;12.55;8.95;;;18.60;48.70;;;;;;4836447;29;20298;-88
2022/03/17 00:23:39;;;;;;;16.05;9.98;;;18.60;48.60;;;;;;4836989;29;20216;-87
2022/03/17 00:26:05;;;;;;;16.25;9.40;;;18.60;48.80;;;;;;4819664;29;20221;-87
2022/03/17 00:28:35;;;;;;;13.43;9.35;;;18.60;48.60;;;;;;4852172;29;20158;-87
2022/03/17 00:31:05;;;;;;;13.68;9.43;;;18.60;48.70;;;;;;4831027;29;20209;-92
2022/03/17 00:33:35;;;;;;;14.18;9.60;;;18.60;49.00;;;;;;4811268;29;20238;-87
2022/03/17 00:36:07;;;;;;;15.02;9.32;;;18.50;49.20;;;;;;4826573;29;20196;-90
2022/03/17 00:38:34;;;;;;;13.60;8.98;;;18.50;49.10;;;;;;4811344;29;20219;-89
2022/03/17 00:41:01;;;;;;;14.65;8.93;;;18.50;49.10;;;;;;4810934;29;20185;-90
2022/03/17 00:43:28;;;;;;;13.93;9.60;;;18.50;49.10;;;;;;4810806;29;20277;-88
2022/03/17 00:45:54;;;;;;;13.27;9.05;;;18.50;48.90;;;;;;4810873;29;20208;-88
2022/03/17 00:48:25;;;;;;;15.40;8.77;;;18.50;48.70;;;;;;4842028;29;20682;-88
2022/03/17 00:50:51;;;;;;;12.73;9.15;;;18.50;49.00;;;;;;4810843;29;20216;-88
2022/03/17 00:53:18;;;;;;;12.90;9.10;;;18.50;49.00;;;;;;4810871;29;20186;-91
2022/03/17 00:55:48;;;;;;;14.77;9.25;;;18.50;49.30;;;;;;4826197;29;20193;-88
2022/03/17 00:58:17;;;;;;;11.60;8.35;;;18.50;48.90;;;;;;4841152;29;20223;-89
2022/03/17 01:00:47;;;;;;;12.60;9.35;;;18.50;49.20;;;;;;4810558;29;20191;-90
2022/03/17 01:03:17;;;;;;;13.43;9.55;;;18.40;49.10;;;;;;4810558;29;20189;-89
2022/03/17 01:05:43;;;;;;;12.57;9.07;;;18.50;49.10;;;;;;4841098;29;20212;-89
2022/03/17 01:08:09;;;;;;;11.65;9.02;;;18.50;49.10;;;;;;4841698;29;20158;-87
2022/03/17 01:10:38;;;;;;;14.48;9.38;;;18.50;49.10;;;;;;4826525;29;20276;-92
2022/03/17 01:13:08;;;;;;;13.25;9.15;;;18.40;49.20;;;;;;4826882;29;20188;-90
2022/03/17 01:15:38;;;;;;;20.15;9.65;;;18.40;49.50;;;;;;4810884;29;20188;-88
2022/03/17 01:18:05;;;;;;;14.23;9.65;;;18.40;49.30;;;;;;4810890;29;20221;-89
2022/03/17 01:20:30;;;;;;;12.98;9.73;;;18.40;49.50;;;;;;4841728;29;20247;-87
2022/03/17 01:23:00;;;;;;;13.05;9.38;;;18.40;49.60;;;;;;4841587;29;20244;-87
2022/03/17 01:25:33;;;;;;;12.18;9.48;;;18.40;49.00;;;;;;4810889;29;20190;-89
2022/03/17 01:28:00;;;;;;;14.77;9.55;;;18.40;49.30;;;;;;4840972;29;20193;-90
2022/03/17 01:30:29;;;;;;;16.80;9.57;;;18.40;49.20;;;;;;4841772;29;20222;-87
2022/03/17 01:32:59;;;;;;;11.63;8.85;;;18.40;49.60;;;;;;4810932;29;20189;-91
2022/03/17 01:35:29;;;;;;;12.20;9.15;;;18.40;49.00;;;;;;4825802;29;20185;-88
2022/03/17 01:37:55;;;;;;;11.65;9.00;;;18.40;49.30;;;;;;4840950;29;20224;-86
2022/03/17 01:40:21;;;;;;;13.43;9.70;;;18.30;49.50;;;;;;4841501;29;20638;-89
2022/03/17 01:42:47;;;;;;;13.73;9.35;;;18.30;49.50;;;;;;4826239;29;20174;-91
2022/03/17 01:45:15;;;;;;;13.52;8.85;;;18.40;50.20;;;;;;4841119;29;20178;-87
2022/03/17 01:47:41;;;;;;;14.98;9.48;;;18.30;49.40;;;;;;4841580;29;20168;-90
2022/03/17 01:50:13;;;;;;;12.25;9.18;;;18.30;49.50;;;;;;4841204;29;20181;-89
2022/03/17 01:52:44;;;;;;;12.18;8.98;;;18.30;49.50;;;;;;4841195;29;20566;-91
2022/03/17 01:55:14;;;;;;;12.77;9.52;;;18.30;49.30;;;;;;4810474;29;20216;-90
2022/03/17 01:57:44;;;;;;;14.57;9.60;;;18.40;49.60;;;;;;4841136;29;20199;-89
2022/03/17 02:00:17;;;;;;;15.60;9.43;;;18.30;49.30;;;;;;4810498;29;20193;-90
2022/03/17 02:02:48;;;;;;;12.90;8.90;;;18.40;49.00;;;;;;4841175;29;20185;-88
2022/03/17 02:05:18;;;;;;;14.20;9.63;;;18.40;49.30;;;;;;4810520;29;20192;-87
2022/03/17 02:07:51;;;;;;;15.20;9.23;;;18.40;49.50;;;;;;4840794;29;20246;-86
2022/03/17 02:10:17;;;;;;;12.50;9.70;;;18.40;49.30;;;;;;4841142;29;20189;-86
2022/03/17 02:13:13;;;;;;;14.60;9.30;;;18.40;49.70;;;;;;4826757;29;20226;-93
2022/03/17 02:15:33;;;;;;;14.20;9.65;;;18.30;49.20;;;;;;4844490;29;20181;-92
2022/03/17 02:18:06;;;;;;;14.60;9.18;;;18.30;49.40;;;;;;4813624;29;20754;-90
2022/03/17 02:20:34;;;;;;;12.35;8.95;;;18.30;49.60;;;;;;4843847;29;20243;-90
2022/03/17 02:25:54;;;;;;;12.20;8.98;;;18.30;49.60;;;;;;4818960;29;20193;-88
2022/03/17 02:28:22;;;;;;;12.90;9.13;;;18.20;49.30;;;;;;4814233;29;20280;-91
2022/03/17 02:30:48;;;;;;;12.45;9.38;;;18.30;49.60;;;;;;4828173;29;20189;-89
2022/03/17 02:33:16;;;;;;;11.60;9.02;;;18.30;49.40;;;;;;4844645;29;20178;-90
2022/03/17 02:35:42;;;;;;;13.55;9.40;;;18.30;49.40;;;;;;4828618;29;20180;-91
2022/03/17 02:38:13;;;;;;;12.43;9.88;;;18.30;49.60;;;;;;4844401;29;20197;-92
2022/03/17 02:40:44;;;;;;;12.18;9.35;;;18.30;49.60;;;;;;4843881;29;20195;-87
2022/03/17 02:43:14;;;;;;;12.30;8.52;;;18.20;50.00;;;;;;4813289;29;20213;-90
2022/03/17 02:45:40;;;;;;;15.23;9.75;;;18.20;49.40;;;;;;4843412;29;20185;-88
2022/03/17 02:48:07;;;;;;;12.45;9.10;;;18.20;49.70;;;;;;4844059;29;20279;-91
2022/03/17 02:50:34;;;;;;;13.48;8.77;;;18.30;49.70;;;;;;4828004;29;20551;-87
2022/03/17 02:53:06;;;;;;;14.38;9.18;;;18.20;49.50;;;;;;4843883;29;20225;-90
2022/03/17 02:55:38;;;;;;;13.77;9.07;;;18.20;49.10;;;;;;4814323;29;20189;-87
2022/03/17 02:58:10;;;;;;;12.43;9.18;;;18.30;49.60;;;;;;4843308;29;20814;-88
2022/03/17 03:00:37;;;;;;;13.93;9.23;;;18.30;49.70;;;;;;4812897;29;20189;-85
2022/03/17 03:03:06;;;;;;;12.18;9.45;;;18.30;49.70;;;;;;4843858;29;20173;-86
2022/03/17 03:05:32;;;;;;;12.15;9.20;;;18.30;49.10;;;;;;4843615;29;20168;-92
2022/03/17 03:07:58;;;;;;;12.45;9.00;;;18.20;49.30;;;;;;4844727;29;20165;-90
2022/03/17 03:10:27;;;;;;;11.88;9.38;;;18.30;49.50;;;;;;4843691;29;20672;-92
2022/03/17 03:12:56;;;;;;;11.15;9.13;;;18.30;49.50;;;;;;4827558;29;20189;-87
2022/03/17 03:15:29;;;;;;;13.40;8.95;;;18.30;49.60;;;;;;4812653;29;20197;-90
2022/03/17 03:17:56;;;;;;;13.40;8.90;;;18.20;49.70;;;;;;4813101;29;20223;-89
2022/03/17 03:20:21;;;;;;;12.90;9.15;;;18.20;49.60;;;;;;4828307;29;20247;-92
2022/03/17 03:22:47;;;;;;;15.48;9.50;;;18.20;49.60;;;;;;4828440;29;20589;-89
2022/03/17 03:25:13;;;;;;;10.52;8.90;;;18.20;49.80;;;;;;4827475;29;20187;-90
2022/03/17 03:27:44;;;;;;;11.88;8.98;;;18.20;49.80;;;;;;4828376;29;20606;-88
2022/03/17 03:30:14;;;;;;;11.93;9.10;;;18.20;49.70;;;;;;4827636;29;20680;-91
2022/03/17 03:32:42;;;;;;;13.75;8.98;;;18.20;49.80;;;;;;4827607;29;20197;-92
2022/03/17 03:37:54;;;;;;;12.65;8.82;;;18.20;49.90;;;;;;4830196;29;20250;-88
2022/03/17 03:40:21;;;;;;;11.15;8.88;;;18.20;49.80;;;;;;4828459;29;20158;-91
2022/03/17 03:42:48;;;;;;;14.30;8.80;;;18.10;49.80;;;;;;4827241;29;20715;-89
2022/03/17 03:45:15;;;;;;;14.52;9.05;;;18.10;49.80;;;;;;4826966;29;20192;-90
2022/03/17 03:47:42;;;;;;;11.70;8.85;;;18.20;49.80;;;;;;4827039;29;20197;-90
2022/03/17 03:50:12;;;;;;;12.57;9.23;;;18.20;50.00;;;;;;4826938;29;20553;-93
2022/03/17 03:52:39;;;;;;;12.55;9.10;;;18.20;50.20;;;;;;4842596;29;20220;-87
2022/03/17 03:55:06;;;;;;;11.85;9.52;;;18.20;49.60;;;;;;4827032;29;20186;-87
2022/03/17 03:57:33;;;;;;;12.80;9.10;;;18.20;49.90;;;;;;4842595;29;20209;-88
2022/03/17 04:00:04;;;;;;;14.07;10.43;;;18.20;49.60;;;;;;4827671;29;20252;-91
2022/03/17 04:02:30;;;;;;;11.98;9.48;;;18.20;49.90;;;;;;4827548;29;20185;-87
2022/03/17 04:05:04;;;;;;;12.77;9.38;;;18.10;49.80;;;;;;4842572;29;20545;-87
2022/03/17 04:07:37;;;;;;;11.02;8.98;;;18.10;49.90;;;;;;4827091;29;20234;-89
2022/03/17 04:10:08;;;;;;;11.30;8.80;;;18.20;49.80;;;;;;4827115;29;20555;-89
2022/03/17 04:12:41;;;;;;;13.02;9.05;;;18.10;49.80;;;;;;4826964;29;20605;-93
2022/03/17 04:15:07;;;;;;;11.20;8.75;;;18.20;49.70;;;;;;4827127;29;20189;-92
2022/03/17 04:17:37;;;;;;;12.23;9.05;;;18.20;49.50;;;;;;4842665;29;20197;-87
2022/03/17 04:20:05;;;;;;;10.95;9.00;;;18.10;49.90;;;;;;4823797;29;20276;-87
2022/03/17 04:22:31;;;;;;;13.25;9.25;;;18.10;49.90;;;;;;4824886;29;20178;-88
2022/03/17 04:24:58;;;;;;;11.13;8.68;;;18.10;50.70;;;;;;4824653;29;20701;-89
2022/03/17 04:27:24;;;;;;;13.43;8.93;;;18.10;49.60;;;;;;4825446;29;20295;-87
2022/03/17 04:29:54;;;;;;;11.48;8.57;;;18.10;49.80;;;;;;4825603;29;20206;-90
2022/03/17 04:32:25;;;;;;;11.38;9.18;;;18.10;49.90;;;;;;4826479;29;20193;-86
2022/03/17 04:34:50;;;;;;;11.35;8.73;;;18.10;50.10;;;;;;4826972;29;20197;-87
2022/03/17 04:37:20;;;;;;;11.63;9.18;;;18.20;50.10;;;;;;4826308;29;20202;-90
2022/03/17 04:39:49;;;;;;;11.77;9.18;;;18.10;49.60;;;;;;4810179;29;20189;-85
2022/03/17 04:42:15;;;;;;;14.43;9.35;;;18.10;50.20;;;;;;4796835;29;20194;-85
2022/03/17 04:44:45;;;;;;;13.60;9.25;;;18.10;50.70;;;;;;4815318;29;20515;-86
2022/03/17 04:47:15;;;;;;;13.40;9.57;;;18.10;50.20;;;;;;4815137;29;20243;-84
2022/03/17 04:49:45;;;;;;;13.15;9.27;;;18.10;50.20;;;;;;4830391;29;20190;-87
2022/03/17 04:55:01;;;;;;;11.00;8.70;;;18.10;49.70;;;;;;4830510;29;20194;-90
2022/03/17 04:57:28;;;;;;;13.00;9.50;;;18.10;49.80;;;;;;4830848;29;20728;-87
2022/03/17 04:59:55;;;;;;;11.77;9.57;;;18.10;50.00;;;;;;4815898;29;20213;-88
2022/03/17 05:02:26;;;;;;;12.52;9.27;;;18.10;50.00;;;;;;4801316;29;20218;-90
2022/03/17 05:04:58;;;;;;;12.68;9.27;;;18.10;49.90;;;;;;4815836;29;20194;-86
2022/03/17 05:07:25;;;;;;;15.05;9.45;;;18.10;50.00;;;;;;4810977;29;20222;-89
2022/03/17 05:09:55;;;;;;;11.88;9.00;;;18.10;50.00;;;;;;4825379;29;20194;-88
2022/03/17 05:12:25;;;;;;;13.43;8.95;;;18.10;50.00;;;;;;4810756;29;20194;-84
2022/03/17 05:14:56;;;;;;;11.55;9.25;;;18.10;50.10;;;;;;4811471;29;20322;-85
2022/03/17 05:17:21;;;;;;;12.60;9.48;;;18.10;50.10;;;;;;4801229;29;20308;-85
2022/03/17 05:19:47;;;;;;;12.45;8.93;;;18.00;49.90;;;;;;4833396;29;20261;-84
2022/03/17 05:22:13;;;;;;;12.85;9.48;;;18.10;49.70;;;;;;4819506;29;20166;-84
2022/03/17 05:24:38;;;;;;;12.15;8.65;;;18.10;49.70;;;;;;4818820;29;20173;-87
2022/03/17 05:27:04;;;;;;;12.90;9.00;;;18.10;49.60;;;;;;4814702;29;20179;-87
2022/03/17 05:29:30;;;;;;;11.57;9.80;;;18.10;49.80;;;;;;4810155;29;20205;-92
2022/03/17 05:32:01;;;;;;;13.15;9.48;;;18.10;49.70;;;;;;4825011;29;20529;-84
2022/03/17 05:34:32;;;;;;;12.25;9.40;;;18.10;49.60;;;;;;4808316;29;20193;-91
2022/03/17 05:37:01;;;;;;;11.77;8.73;;;18.10;49.40;;;;;;4808607;29;20214;-87
2022/03/17 05:39:31;;;;;;;12.18;9.75;;;18.10;49.50;;;;;;4808337;29;20193;-89
2022/03/17 05:42:00;;;;;;;10.98;9.15;;;18.20;49.20;;;;;;4793156;29;20186;-89
2022/03/17 05:44:31;;;;;;;12.30;8.95;;;18.20;49.70;;;;;;4808003;29;20202;-84
2022/03/17 05:46:57;;;;;;;12.95;9.27;;;18.10;49.60;;;;;;4812084;29;20207;-91
2022/03/17 05:49:30;;;;;;;11.00;8.80;;;18.10;49.70;;;;;;4830886;29;20170;-86
2022/03/17 05:51:56;;;;;;;12.73;8.93;;;18.30;49.20;;;;;;4845966;29;20168;-90
2022/03/17 05:54:24;;;;;;;13.23;8.63;;;18.20;49.00;;;;;;4829722;29;20181;-89
2022/03/17 05:56:52;;;;;;;12.48;9.65;;;18.20;49.00;;;;;;4812549;29;20311;-87
2022/03/17 05:59:18;;;;;;;11.80;9.40;;;18.30;48.70;;;;;;4828643;29;20181;-88
2022/03/17 06:01:43;;;;;;;12.48;8.80;;;18.40;48.10;;;;;;4826371;29;20151;-91
2022/03/17 06:04:11;;;;;;;12.88;9.25;;;18.30;48.50;;;;;;4814452;29;20190;-83
2022/03/17 06:06:36;;;;;;;12.20;9.15;;;18.40;48.50;;;;;;4817866;29;20231;-84
2022/03/17 06:09:02;;;;;;;13.45;9.52;;;18.40;48.70;;;;;;4833016;29;20170;-86
2022/03/17 06:11:29;;;;;;;11.55;8.77;;;18.50;48.40;;;;;;4831734;29;20915;-90
2022/03/17 06:13:56;;;;;;;12.25;9.23;;;18.40;48.10;;;;;;4832151;29;20167;-84
2022/03/17 06:16:23;;;;;;;11.80;9.05;;;18.40;48.00;;;;;;4842655;29;20176;-88
2022/03/17 06:18:49;;;;;;;12.23;9.05;;;18.50;47.90;;;;;;4839018;29;20173;-86
2022/03/17 06:21:15;;;;;;;13.07;9.45;;;18.50;48.10;;;;;;4852657;29;20288;-88
2022/03/17 06:23:43;;;;;;;11.63;8.88;;;18.50;47.80;;;;;;4852698;29;20173;-84
2022/03/17 06:26:09;;;;;;;11.15;8.60;;;18.60;47.60;;;;;;4853190;29;20172;-87
2022/03/17 06:28:42;;;;;;;13.02;9.55;;;18.60;47.30;;;;;;4852561;29;20181;-89
2022/03/17 06:31:12;;;;;;;12.07;8.88;;;18.60;47.70;;;;;;4820316;29;20219;-84
2022/03/17 06:33:44;;;;;;;12.73;8.90;;;18.60;47.50;;;;;;4821455;29;20193;-84
2022/03/17 06:36:22;;;;;;;11.82;8.82;;;18.60;47.60;;;;;;4837812;29;20203;-86
2022/03/17 06:38:49;;;;;;;10.75;8.95;;;18.50;47.30;;;;;;4838081;29;20192;-84
2022/03/17 06:41:18;;;;;;;13.55;9.43;;;18.60;47.20;;;;;;4868465;29;20640;-87
2022/03/17 06:43:45;;;;;;;10.95;9.10;;;18.60;47.70;;;;;;4837156;29;20212;-86
2022/03/17 06:46:11;;;;;;;10.50;8.45;;;18.60;47.40;;;;;;4853497;29;20601;-82
2022/03/17 06:48:37;;;;;;;10.75;8.48;;;18.60;47.60;;;;;;4867507;29;20177;-83
2022/03/17 06:51:04;;;;;;;10.85;8.50;;;18.60;47.40;;;;;;4851403;29;20181;-84
2022/03/17 06:53:31;;;;;;;11.07;8.80;;;18.60;47.30;;;;;;4851148;29;20202;-88
2022/03/17 06:55:59;;;;;;;10.50;8.52;;;18.50;47.70;;;;;;4850926;29;20181;-83
2022/03/17 06:58:24;;;;;;;10.88;8.75;;;18.50;47.40;;;;;;4850641;29;20236;-86
2022/03/17 07:00:51;;;;;;;11.80;9.35;;;18.50;47.80;;;;;;4865525;29;20181;-83
2022/03/17 07:03:17;;;;;;;14.32;9.40;;;18.50;47.60;;;;;;4850758;29;20169;-85
2022/03/17 07:05:42;;;;;;;11.13;8.88;;;18.60;47.80;;;;;;4850657;29;20195;-86
2022/03/17 07:08:08;;;;;;;11.70;9.20;;;18.50;46.90;;;;;;4850659;29;20201;-87
2022/03/17 07:10:34;;;;;;;10.25;8.65;;;18.60;47.00;;;;;;4866668;29;20173;-85
2022/03/17 07:12:59;;;;;;;13.05;8.95;;;18.60;46.90;;;;;;4865665;29;20519;-88
2022/03/17 07:15:28;;;;;;;10.98;8.90;;;18.60;46.70;;;;;;4840994;29;20228;-83
2022/03/17 07:17:54;;;;;;;9.90;8.18;;;18.60;47.00;;;;;;4856559;29;20256;-82
2022/03/17 07:20:19;;;;;;;10.73;8.93;;;18.60;46.20;;;;;;4843091;29;20257;-82
2022/03/17 07:22:47;;;;;;;10.60;9.05;;;18.70;46.40;;;;;;4850510;29;20198;-84
2022/03/17 07:25:13;;;;;;;11.15;8.57;;;18.70;47.00;;;;;;4855268;29;20240;-83
2022/03/17 07:27:42;;;;;;;11.32;9.00;;;18.70;46.90;;;;;;4856745;29;20180;-85
2022/03/17 07:30:10;;;;;;;10.25;8.50;;;18.70;46.90;;;;;;4855987;29;20256;-84
2022/03/17 07:32:38;;;;;;;13.27;9.20;;;18.70;46.80;;;;;;4842074;29;20267;-81
2022/03/17 07:35:04;;;;;;;11.63;9.10;;;18.80;46.90;;;;;;4838245;29;20177;-86
2022/03/17 07:37:31;;;;;;;10.82;9.00;;;18.70;46.70;;;;;;4818381;29;20194;-86
2022/03/17 07:40:07;;;;;;;10.63;8.88;;;18.70;46.70;;;;;;4818205;29;20510;-84
2022/03/17 07:42:36;;;;;;;10.85;8.23;;;18.80;46.50;;;;;;4803042;29;20193;-82
2022/03/17 07:45:05;;;;;;;11.93;8.63;;;18.80;46.50;;;;;;4818408;29;20226;-82
2022/03/17 07:47:56;;;;;;;11.10;8.65;;;18.80;46.80;;;;;;4804562;29;20257;-86
2022/03/17 07:50:37;;;;;;;12.40;8.70;;;18.80;46.60;;;;;;4827904;29;20296;-83
2022/03/17 07:53:08;;;;;;;10.95;8.23;;;18.90;45.30;;;;;;4822500;29;20194;-83
2022/03/17 07:55:37;;;;;;;10.10;8.32;;;18.90;45.50;;;;;;4822126;29;20190;-86
2022/03/17 07:58:10;;;;;;;11.63;8.40;;;19.00;45.20;;;;;;4822439;29;20723;-84
2022/03/17 08:00:42;;;;;;;10.25;8.35;;;19.00;46.30;;;;;;4804741;29;20186;-86
2022/03/17 08:03:16;;;;;;;11.60;8.68;;;19.00;45.70;;;;;;4803944;29;20212;-84
2022/03/17 08:05:47;;;;;;;12.85;8.90;;;19.00;45.60;;;;;;4789321;29;20178;-83
2022/03/17 08:08:25;;;;;;;10.15;8.63;;;19.00;46.10;;;;;;4790837;29;20190;-83
2022/03/17 08:10:57;;;;;;;11.23;8.98;;;18.90;46.00;;;;;;4798063;29;20334;-86
2022/03/17 08:13:28;;;;;;;9.30;7.97;;;19.00;45.70;;;;;;4787480;29;20198;-90
2022/03/17 08:16:03;;;;;;;10.60;8.70;;;19.00;45.50;;;;;;4773451;29;20193;-83
2022/03/17 08:18:36;;;;;;;11.43;8.40;;;19.00;45.60;;;;;;4820838;29;20224;-83
2022/03/17 08:21:08;;;;;;;11.20;8.73;;;19.10;45.60;;;;;;4804133;29;20272;-83
2022/03/17 08:23:35;;;;;;;10.98;8.85;;;19.00;45.40;;;;;;4787148;29;20194;-87
2022/03/17 08:26:06;;;;;;;10.50;8.80;;;19.10;45.60;;;;;;4790855;29;20190;-85
2022/03/17 08:28:40;;;;;;;10.77;8.38;;;19.10;45.60;;;;;;4778311;29;20197;-83
2022/03/17 08:31:07;;;;;;;11.00;8.63;;;19.10;45.00;;;;;;4794863;29;20216;-83
2022/03/17 08:33:39;;;;;;;11.60;8.43;;;19.10;45.10;;;;;;4822130;29;20190;-82
2022/03/17 08:36:10;;;;;;;11.85;8.75;;;19.10;45.10;;;;;;4824147;29;20189;-81
2022/03/17 08:38:40;;;;;;;11.50;8.88;;;19.20;45.20;;;;;;4792702;29;20228;-83
2022/03/17 08:41:10;;;;;;;10.55;8.57;;;19.10;45.10;;;;;;4824793;29;20193;-81
2022/03/17 08:43:39;;;;;;;11.20;8.60;;;19.10;45.40;;;;;;4808190;29;20226;-83
2022/03/17 08:51:36;;;;;;;9.90;7.97;;;19.10;44.80;;;;;;4820155;29;20186;-88
2022/03/17 08:54:03;;;;;;;11.90;8.23;;;19.10;45.00;;;;;;4816825;29;20192;-86
2022/03/17 08:56:32;;;;;;;10.88;8.77;;;19.20;44.80;;;;;;4815839;29;20717;-86
2022/03/17 08:59:00;;;;;;;10.75;8.60;;;19.20;45.20;;;;;;4801840;29;20185;-83
2022/03/17 09:01:29;;;;;;;11.02;8.90;;;19.20;45.00;;;;;;4817685;29;20250;-83
2022/03/17 09:03:56;;;;;;;11.75;8.68;;;19.20;45.20;;;;;;4806968;29;20249;-84
2022/03/17 09:06:27;;;;;;;10.57;8.65;;;19.10;45.30;;;;;;4820600;29;20189;-85
2022/03/17 09:08:53;;;;;;;10.35;8.40;;;19.10;45.80;;;;;;4819193;29;20190;-84
2022/03/17 09:11:20;;;;;;;10.18;8.50;;;19.00;45.80;;;;;;4802061;29;20194;-88
2022/03/17 09:13:51;;;;;;;10.55;8.52;;;18.90;45.40;;;;;;4816404;29;20266;-85
2022/03/17 09:16:22;;;;;;;9.60;7.82;;;19.00;45.90;;;;;;4817055;29;20194;-83
2022/03/17 09:18:48;;;;;;;10.73;8.43;;;19.00;46.00;;;;;;4801613;29;20232;-86
2022/03/17 09:21:25;;;;;;;11.95;8.15;;;19.00;45.20;;;;;;4833016;29;20230;-85
2022/03/17 09:23:51;;;;;;;9.85;8.25;;;19.10;45.00;;;;;;4821323;29;20196;-81
2022/03/17 09:26:21;;;;;;;9.88;8.00;;;19.10;45.20;;;;;;4822838;29;20189;-83
2022/03/17 09:28:47;;;;;;;11.95;7.72;;;19.20;44.90;;;;;;4820973;29;20190;-82
2022/03/17 09:31:18;;;;;;;10.25;8.18;;;19.20;45.00;;;;;;4833254;29;20174;-88
2022/03/17 09:33:49;;;;;;;9.85;7.85;;;19.20;45.10;;;;;;4799870;29;20186;-86
2022/03/17 09:36:16;;;;;;;10.65;8.23;;;19.20;45.20;;;;;;4819990;29;20201;-86
2022/03/17 09:41:36;;;;;;;10.40;8.73;;;19.30;44.50;;;;;;4811254;29;20212;-83
2022/03/17 09:44:06;;;;;;;11.15;8.63;;;19.30;44.50;;;;;;4820836;29;20186;-82
2022/03/17 09:46:38;;;;;;;8.85;7.78;;;19.20;45.00;;;;;;4805309;29;20553;-89
2022/03/17 09:49:10;;;;;;;9.32;8.05;;;19.20;45.10;;;;;;4819868;29;20223;-86
2022/03/17 09:51:42;;;;;;;10.43;8.30;;;19.20;45.50;;;;;;4803718;29;20698;-85
2022/03/17 09:54:10;;;;;;;9.82;7.97;;;19.10;45.50;;;;;;4804938;29;20189;-86
2022/03/17 09:56:43;;;;;;;13.50;8.35;;;19.20;45.30;;;;;;4818722;29;20219;-88
2022/03/17 09:59:11;;;;;;;10.77;7.80;;;19.20;45.30;;;;;;4818819;29;20197;-85
2022/03/17 10:01:41;;;;;;;10.23;8.15;;;19.10;45.20;;;;;;4818401;29;20650;-84
2022/03/17 10:04:12;;;;;;;9.95;8.40;;;19.30;45.00;;;;;;4818079;29;20193;-87
2022/03/17 10:06:43;;;;;;;9.65;8.30;;;19.20;45.10;;;;;;4801223;29;20250;-83
2022/03/17 10:09:15;;;;;;;10.77;7.78;;;19.30;45.20;;;;;;4817831;29;20190;-83
2022/03/17 10:11:44;;;;;;;10.10;8.30;;;19.20;44.80;;;;;;4805156;29;20187;-82
2022/03/17 10:14:10;;;;;;;10.05;8.45;;;19.20;45.00;;;;;;4835051;29;20650;-83
2022/03/17 10:16:41;;;;;;;11.57;8.52;;;19.20;45.30;;;;;;4820875;29;20201;-83
2022/03/17 10:19:08;;;;;;;8.88;7.63;;;19.20;45.00;;;;;;4820786;29;20685;-88
2022/03/17 10:21:41;;;;;;;10.20;8.23;;;19.20;45.20;;;;;;4838559;29;20192;-86
2022/03/17 10:24:12;;;;;;;11.02;7.88;;;19.20;45.20;;;;;;4855700;29;20191;-83
2022/03/17 10:26:40;;;;;;;11.23;8.38;;;19.20;44.70;;;;;;4823257;29;20258;-87
2022/03/17 10:29:26;;;;;;;9.95;8.30;;;19.20;44.20;;;;;;4868839;29;20157;-89
2022/03/17 10:31:59;;;;;;;16.52;8.50;;;19.30;44.60;;;;;;4866163;29;20157;-91
2022/03/17 10:34:28;;;;;;;13.93;8.20;;;19.30;44.60;;;;;;4850393;29;20213;-90
2022/03/17 10:37:08;;;;;;;11.85;8.63;;;19.20;44.50;;;;;;4865162;29;20236;-87
2022/03/17 10:39:36;;;;;;;10.38;8.18;;;19.30;44.80;;;;;;4868054;29;20522;-90
2022/03/17 10:42:13;;;;;;;9.50;7.78;;;19.20;45.10;;;;;;4853446;29;20173;-87
2022/03/17 10:44:40;;;;;;;11.07;8.35;;;19.30;45.00;;;;;;4868727;29;20242;-92
2022/03/17 10:47:30;;;;;;;9.60;7.60;;;19.20;45.20;;;;;;4852886;29;20217;-89
2022/03/17 10:50:01;;;;;;;16.48;8.27;;;19.20;44.90;;;;;;4853739;29;20180;-85
2022/03/17 10:52:44;;;;;;;15.45;7.95;;;19.20;45.20;;;;;;4851491;29;20722;-84
2022/03/17 10:55:11;;;;;;;13.60;8.32;;;19.20;45.00;;;;;;4866583;29;20240;-89
2022/03/17 10:57:37;;;;;;;12.35;8.55;;;19.20;45.10;;;;;;4851258;29;20349;-84
2022/03/17 11:00:09;;;;;;;14.23;8.30;;;19.20;45.90;;;;;;4852356;29;20267;-89
2022/03/17 11:02:37;;;;;;;15.57;8.15;;;19.20;45.10;;;;;;4851691;29;20176;-92
2022/03/17 11:05:06;;;;;;;11.60;7.85;;;19.20;45.20;;;;;;4852014;29;20179;-83
2022/03/17 11:07:32;;;;;;;11.95;7.78;;;19.20;45.10;;;;;;4867092;29;20156;-88
2022/03/17 11:09:58;;;;;;;11.68;8.10;;;19.20;45.40;;;;;;4850839;29;20643;-88
2022/03/17 11:12:25;;;;;;;12.32;8.93;;;19.20;45.60;;;;;;4850742;29;20183;-90
2022/03/17 11:14:53;;;;;;;11.85;8.02;;;19.20;45.40;;;;;;4866754;29;20180;-88
2022/03/17 11:17:26;;;;;;;9.35;7.90;;;19.20;45.30;;;;;;4866877;29;20190;-87
2022/03/17 11:19:53;;;;;;;10.70;8.40;;;19.20;45.30;;;;;;4845098;29;20281;-86
2022/03/17 11:22:22;;;;;;;11.75;7.97;;;19.20;45.30;;;;;;4849519;29;20637;-84
2022/03/17 11:25:00;;;;;;;13.07;7.95;;;19.20;45.30;;;;;;4852102;29;20572;-88
2022/03/17 11:27:29;;;;;;;11.63;8.05;;;19.20;45.30;;;;;;4853981;29;20177;-87
2022/03/17 11:29:55;;;;;;;9.00;7.90;;;19.20;45.00;;;;;;4836747;29;20238;-84
2022/03/17 11:32:29;;;;;;;15.75;10.00;;;19.30;44.70;;;;;;4839267;29;20177;-83
2022/03/17 11:35:19;;;;;;;11.60;8.57;;;19.40;44.70;;;;;;4847989;29;20177;-85
2022/03/17 11:37:50;;;;;;;9.82;8.40;;;19.30;45.00;;;;;;4858982;29;20207;-84
2022/03/17 11:40:19;;;;;;;10.95;7.93;;;19.30;44.60;;;;;;4843066;29;20693;-85
2022/03/17 11:42:47;;;;;;;11.07;8.23;;;19.40;44.70;;;;;;4848699;29;20177;-88
2022/03/17 11:45:36;;;;;;;10.13;8.38;;;19.50;44.60;;;;;;4847554;29;20167;-84
2022/03/17 11:48:06;;;;;;;8.55;7.57;;;19.40;44.40;;;;;;4829449;29;20170;-86
2022/03/17 11:50:44;;;;;;;9.93;7.97;;;19.50;44.30;;;;;;4842665;29;20163;-86
2022/03/17 11:53:47;;;;;;;9.77;8.23;;;19.50;44.20;;;;;;4828466;29;20654;-88
2022/03/17 11:56:32;;;;;;;10.00;7.80;;;19.50;44.30;;;;;;4832259;29;20166;-85
2022/03/17 11:59:05;;;;;;;8.77;7.72;;;19.50;44.20;;;;;;4828866;29;20202;-87
2022/03/17 12:01:34;;;;;;;10.27;7.35;;;19.50;44.00;;;;;;4815035;29;20243;-85
2022/03/17 12:04:04;;;;;;;9.68;8.20;;;19.60;43.80;;;;;;4844914;29;20190;-84
2022/03/17 12:06:34;;;;;;;9.32;7.53;;;19.50;44.10;;;;;;4832157;29;20186;-85
2022/03/17 12:09:06;;;;;;;11.35;7.85;;;19.60;44.00;;;;;;4851302;29;20159;-84
2022/03/17 12:11:36;;;;;;;8.23;7.38;;;19.70;43.60;;;;;;4835973;29;20198;-84
2022/03/17 12:14:17;;;;;;;11.80;8.23;;;19.60;43.60;;;;;;4852417;29;20190;-83
2022/03/17 12:16:58;;;;;;;9.02;7.75;;;19.50;44.10;;;;;;4852429;29;20199;-83
2022/03/17 12:19:28;;;;;;;10.23;8.05;;;19.50;43.50;;;;;;4838662;29;20224;-84
2022/03/17 12:22:08;;;;;;;9.88;8.00;;;19.50;43.90;;;;;;4864548;29;20164;-88
2022/03/17 12:24:54;;;;;;;8.73;7.50;;;19.50;44.30;;;;;;4848314;29;20196;-88
2022/03/17 12:28:08;;;;;;;14.48;7.88;;;19.40;44.10;;;;;;4869541;29;20176;-84
2022/03/17 12:30:38;;;;;;;10.35;7.75;;;19.50;43.70;;;;;;4853369;29;20264;-84
2022/03/17 12:33:08;;;;;;;9.90;8.05;;;19.50;44.10;;;;;;4833785;29;20352;-87
2022/03/17 12:36:06;;;;;;;8.88;7.38;;;19.50;43.90;;;;;;4820824;29;20279;-89
2022/03/17 12:38:34;;;;;;;9.50;7.70;;;19.50;44.00;;;;;;4822519;29;20220;-87
2022/03/17 12:41:18;;;;;;;10.00;7.90;;;19.40;44.20;;;;;;4839934;29;20196;-87
2022/03/17 12:44:00;;;;;;;9.18;7.28;;;19.50;44.20;;;;;;4811790;29;20200;-87
2022/03/17 12:46:26;;;;;;;9.70;7.13;;;19.40;44.10;;;;;;4848596;29;20184;-89
2022/03/17 12:49:49;;;;;;;11.57;7.57;;;19.40;44.10;;;;;;4837754;29;20177;-86
2022/03/17 12:57:00;;;;;;;;;;;;;;;;;;;;;
2022/03/17 13:09:11;;;;;;;9.13;7.90;;;19.50;43.80;;;;;;4814277;29;20210;-85
2022/03/17 13:14:46;;;;;;;11.05;7.88;;;19.40;43.80;;;;;;4816059;29;20190;-85
2022/03/17 13:17:32;;;;;;;9.02;6.72;;;19.50;44.70;;;;;;4821402;29;20222;-85
2022/03/17 13:20:32;;;;;;;9.88;7.55;;;19.50;44.10;;;;;;4819499;29;20233;-85
2022/03/17 13:23:03;;;;;;;11.82;7.00;;;19.50;44.10;;;;;;4798737;30;20199;-87
2022/03/17 13:25:34;;;;;;;9.82;7.70;;;19.50;43.70;;;;;;4782073;30;20264;-89
2022/03/17 13:28:07;;;;;;;9.80;7.70;;;19.50;45.00;;;;;;4765613;30;20191;-89